Time;durP1;ratioP1;P1;durP2;ratioP2;P2;SDS_P1;SDS_P2;PMS_P1;PMS_P2;Temp;Humidity;BMP_temperature;BMP_pressure;BME280_temperature;BME280_humidity;BME280_pressure;Samples;Min_cycle;Max_cycle;Signal;HPM_P1;HPM_P2
2023/12/29 00:00:24;;;;;;;1.33;1.15;;;;;;;;;;5084073;28;20052;-85
2023/12/29 00:02:49;;;;;;;2.28;1.10;;;;;;;;;;5081917;28;20052;-85
2023/12/29 00:05:15;;;;;;;1.27;1.17;;;;;;;;;;5085308;28;20016;-84
2023/12/29 00:07:40;;;;;;;1.35;1.13;;;;;;;;;;5095108;28;20092;-85
2023/12/29 00:10:06;;;;;;;1.85;1.08;;;;;;;;;;5101878;28;20024;-85
2023/12/29 00:12:31;;;;;;;1.65;1.55;;;;;;;;;;5082970;28;20031;-85
2023/12/29 00:14:57;;;;;;;1.83;1.35;;;;;;;;;;5090394;28;20020;-85
2023/12/29 00:17:22;;;;;;;1.60;1.50;;;;;;;;;;5095069;28;20037;-85
2023/12/29 00:19:47;;;;;;;2.38;1.45;;;;;;;;;;5099499;28;20064;-87
2023/12/29 00:22:13;;;;;;;1.25;1.15;;;;;;;;;;5079539;28;20096;-87
2023/12/29 00:24:39;;;;;;;1.40;1.30;;;;;;;;;;5086620;28;20114;-86
2023/12/29 00:27:04;;;;;;;1.60;1.50;;;;;;;;;;5082831;28;20020;-86
2023/12/29 00:29:32;;;;;;;1.40;1.30;;;;;;;;;;5088575;28;20106;-86
2023/12/29 00:31:58;;;;;;;2.75;1.48;;;;;;;;;;5085635;28;20035;-85
2023/12/29 00:34:24;;;;;;;1.35;1.25;;;;;;;;;;5085439;28;20457;-89
2023/12/29 00:36:51;;;;;;;1.38;0.88;;;;;;;;;;5087110;28;20044;-87
2023/12/29 00:39:17;;;;;;;0.32;0.32;;;;;;;;;;5086351;28;20040;-89
2023/12/29 00:41:45;;;;;;;1.30;1.20;;;;;;;;;;5082973;28;20076;-87
2023/12/29 00:44:10;;;;;;;2.30;1.42;;;;;;;;;;5087423;28;20015;-87
2023/12/29 00:46:36;;;;;;;1.33;1.23;;;;;;;;;;5082355;28;20381;-86
2023/12/29 00:49:01;;;;;;;1.60;1.50;;;;;;;;;;5064191;28;20036;-86
2023/12/29 00:51:29;;;;;;;1.42;1.25;;;;;;;;;;5068759;28;20031;-87
2023/12/29 00:53:55;;;;;;;0.65;0.65;;;;;;;;;;5092463;28;20051;-88
2023/12/29 00:56:20;;;;;;;1.42;1.33;;;;;;;;;;5062277;28;20054;-86
2023/12/29 00:58:46;;;;;;;4.65;1.40;;;;;;;;;;5084255;28;20047;-89
2023/12/29 01:01:11;;;;;;;1.10;1.10;;;;;;;;;;5089766;28;20083;-87
2023/12/29 01:03:37;;;;;;;1.30;1.20;;;;;;;;;;5080466;28;20109;-87
2023/12/29 01:06:02;;;;;;;1.60;1.50;;;;;;;;;;5058432;28;20024;-87
2023/12/29 01:08:28;;;;;;;2.40;1.90;;;;;;;;;;5078605;28;20024;-86
2023/12/29 01:10:53;;;;;;;2.22;1.40;;;;;;;;;;5087208;28;20042;-85
2023/12/29 01:13:20;;;;;;;6.55;1.73;;;;;;;;;;5086820;28;20135;-86
2023/12/29 01:15:45;;;;;;;1.92;1.73;;;;;;;;;;5060402;28;20059;-88
2023/12/29 01:18:11;;;;;;;1.48;1.38;;;;;;;;;;5059824;28;20436;-87
2023/12/29 01:20:39;;;;;;;2.25;1.63;;;;;;;;;;5081034;28;20028;-89
2023/12/29 01:23:05;;;;;;;1.40;1.30;;;;;;;;;;5078002;28;20238;-86
2023/12/29 01:25:30;;;;;;;1.50;1.40;;;;;;;;;;5080191;28;20029;-86
2023/12/29 01:27:56;;;;;;;2.75;1.70;;;;;;;;;;5087605;28;20538;-87
2023/12/29 01:30:21;;;;;;;1.65;1.27;;;;;;;;;;5060996;28;20031;-87
2023/12/29 01:32:46;;;;;;;1.50;1.40;;;;;;;;;;5075882;28;20035;-86
2023/12/29 01:35:12;;;;;;;1.02;0.95;;;;;;;;;;5087905;28;20024;-88
2023/12/29 01:37:37;;;;;;;1.60;1.50;;;;;;;;;;5080364;28;20035;-87
2023/12/29 01:40:03;;;;;;;1.33;1.15;;;;;;;;;;5066961;28;20024;-88
2023/12/29 01:42:28;;;;;;;1.98;1.15;;;;;;;;;;5080572;28;20031;-87
2023/12/29 01:44:54;;;;;;;1.73;1.60;;;;;;;;;;5080389;28;20028;-87
2023/12/29 01:47:20;;;;;;;2.38;1.50;;;;;;;;;;5081471;28;20039;-86
2023/12/29 01:49:46;;;;;;;1.27;1.17;;;;;;;;;;5086565;28;20666;-88
2023/12/29 01:52:14;;;;;;;1.40;1.27;;;;;;;;;;5061536;28;20042;-86
2023/12/29 01:54:40;;;;;;;2.40;1.75;;;;;;;;;;5084196;28;20028;-87
2023/12/29 01:57:08;;;;;;;1.50;1.40;;;;;;;;;;5088610;28;20380;-88
2023/12/29 01:59:35;;;;;;;2.00;1.60;;;;;;;;;;5092953;28;20104;-86
2023/12/29 02:02:01;;;;;;;1.23;1.13;;;;;;;;;;5066683;28;20024;-87
2023/12/29 02:04:28;;;;;;;1.40;1.30;;;;;;;;;;5085919;28;20034;-84
2023/12/29 02:06:54;;;;;;;2.38;1.45;;;;;;;;;;5084490;28;20116;-87
2023/12/29 02:09:20;;;;;;;1.52;1.20;;;;;;;;;;5087466;28;20134;-88
2023/12/29 02:11:46;;;;;;;4.70;1.52;;;;;;;;;;5089769;28;20032;-87
2023/12/29 02:14:12;;;;;;;1.33;1.23;;;;;;;;;;5068194;28;20069;-86
2023/12/29 02:16:54;;;;;;;1.65;1.40;;;;;;;;;;5096019;28;20031;-87
2023/12/29 02:19:46;;;;;;;3.22;1.17;;;;;;;;;;5078759;28;20064;-87
2023/12/29 02:22:12;;;;;;;1.73;1.60;;;;;;;;;;5084140;28;20049;-89
2023/12/29 02:24:38;;;;;;;1.48;1.33;;;;;;;;;;5072218;28;20283;-87
2023/12/29 02:27:10;;;;;;;0.90;0.90;;;;;;;;;;5085227;28;20393;-88
2023/12/29 02:29:39;;;;;;;2.47;1.80;;;;;;;;;;5088641;28;20675;-86
2023/12/29 02:32:11;;;;;;;3.72;1.20;;;;;;;;;;5093147;28;20123;-87
2023/12/29 02:34:40;;;;;;;1.87;1.40;;;;;;;;;;5091460;28;20040;-88
2023/12/29 02:37:08;;;;;;;1.30;1.15;;;;;;;;;;5078701;28;20031;-87
2023/12/29 02:39:34;;;;;;;1.65;1.23;;;;;;;;;;5086815;28;20107;-87
2023/12/29 02:41:59;;;;;;;1.25;1.15;;;;;;;;;;5086894;28;20052;-86
2023/12/29 02:44:24;;;;;;;1.30;1.20;;;;;;;;;;5091233;28;20028;-88
2023/12/29 02:46:50;;;;;;;1.60;1.45;;;;;;;;;;5085350;28;20015;-87
2023/12/29 02:49:21;;;;;;;1.70;1.42;;;;;;;;;;5089430;28;20047;-87
2023/12/29 02:51:47;;;;;;;1.85;1.52;;;;;;;;;;5088617;28;21142;-87
2023/12/29 02:54:13;;;;;;;2.05;1.60;;;;;;;;;;5063236;28;20021;-88
2023/12/29 02:56:38;;;;;;;2.05;1.67;;;;;;;;;;5088592;28;20025;-88
2023/12/29 02:59:04;;;;;;;1.55;1.42;;;;;;;;;;5069308;28;20040;-86
2023/12/29 03:01:29;;;;;;;1.38;1.27;;;;;;;;;;5084958;28;20208;-86
2023/12/29 03:03:55;;;;;;;1.92;1.45;;;;;;;;;;5086320;28;20025;-87
2023/12/29 03:06:20;;;;;;;4.72;1.20;;;;;;;;;;5070929;28;20043;-87
2023/12/29 03:08:48;;;;;;;3.65;1.30;;;;;;;;;;5068894;28;20039;-88
2023/12/29 03:11:14;;;;;;;3.47;1.90;;;;;;;;;;5085438;28;20043;-88
2023/12/29 03:13:39;;;;;;;1.75;1.20;;;;;;;;;;5083083;28;20024;-87
2023/12/29 03:16:05;;;;;;;1.50;1.40;;;;;;;;;;5083335;28;20065;-89
2023/12/29 03:18:30;;;;;;;3.75;1.58;;;;;;;;;;5068972;28;20028;-87
2023/12/29 03:20:55;;;;;;;1.02;0.98;;;;;;;;;;5080226;28;20404;-89
2023/12/29 03:23:21;;;;;;;1.23;1.02;;;;;;;;;;5064787;28;20107;-87
2023/12/29 03:25:46;;;;;;;1.75;1.60;;;;;;;;;;5083913;28;20094;-88
2023/12/29 03:28:11;;;;;;;2.55;1.25;;;;;;;;;;5086289;28;20459;-87
2023/12/29 03:30:37;;;;;;;1.83;1.30;;;;;;;;;;5089904;28;20077;-87
2023/12/29 03:33:02;;;;;;;4.10;1.92;;;;;;;;;;5088338;28;20024;-86
2023/12/29 03:35:28;;;;;;;1.83;1.42;;;;;;;;;;5084385;28;20418;-86
2023/12/29 03:37:53;;;;;;;1.83;1.48;;;;;;;;;;5087782;28;20494;-87
2023/12/29 03:40:18;;;;;;;3.38;1.63;;;;;;;;;;5085806;28;20032;-88
2023/12/29 03:42:44;;;;;;;1.95;1.58;;;;;;;;;;5090155;28;20028;-87
2023/12/29 03:45:09;;;;;;;2.17;1.45;;;;;;;;;;5068625;28;20064;-87
2023/12/29 03:47:35;;;;;;;2.22;1.45;;;;;;;;;;5071562;28;20032;-89
2023/12/29 03:50:01;;;;;;;2.47;1.67;;;;;;;;;;5091110;28;20470;-86
2023/12/29 03:52:26;;;;;;;4.35;1.60;;;;;;;;;;5073505;28;20026;-87
2023/12/29 03:54:51;;;;;;;2.00;1.63;;;;;;;;;;5083998;28;20048;-86
2023/12/29 03:57:17;;;;;;;1.60;1.50;;;;;;;;;;5087495;28;20115;-88
2023/12/29 03:59:42;;;;;;;1.90;1.50;;;;;;;;;;5073782;28;20106;-87
2023/12/29 04:02:07;;;;;;;1.90;1.60;;;;;;;;;;5086332;28;20080;-87
2023/12/29 04:04:36;;;;;;;1.83;1.58;;;;;;;;;;5098144;28;20020;-88
2023/12/29 04:07:02;;;;;;;1.98;1.65;;;;;;;;;;5072713;28;20092;-87
2023/12/29 04:09:27;;;;;;;2.22;1.50;;;;;;;;;;5110473;28;20012;-84
2023/12/29 04:11:52;;;;;;;1.77;1.33;;;;;;;;;;5084664;28;20033;-88
2023/12/29 04:14:18;;;;;;;1.92;1.73;;;;;;;;;;5087978;28;20024;-87
2023/12/29 04:16:43;;;;;;;2.10;1.33;;;;;;;;;;5088627;28;20040;-87
2023/12/29 04:19:09;;;;;;;1.48;1.38;;;;;;;;;;5083722;28;20017;-88
2023/12/29 04:21:34;;;;;;;4.50;1.50;;;;;;;;;;5080141;28;20090;-88
2023/12/29 04:23:59;;;;;;;1.50;1.40;;;;;;;;;;5061668;28;20030;-87
2023/12/29 04:26:24;;;;;;;1.60;1.50;;;;;;;;;;5068486;28;20034;-87
2023/12/29 04:28:50;;;;;;;2.25;1.80;;;;;;;;;;5087354;28;20402;-87
2023/12/29 04:31:15;;;;;;;1.67;1.25;;;;;;;;;;5071415;28;20110;-88
2023/12/29 04:33:40;;;;;;;1.52;1.42;;;;;;;;;;5075504;28;20054;-88
2023/12/29 04:36:06;;;;;;;1.33;1.23;;;;;;;;;;5064966;28;20058;-88
2023/12/29 04:38:31;;;;;;;2.22;1.70;;;;;;;;;;5077697;28;20111;-87
2023/12/29 04:40:56;;;;;;;3.72;1.30;;;;;;;;;;5080346;28;20423;-84
2023/12/29 04:43:22;;;;;;;1.98;1.65;;;;;;;;;;5087097;28;20511;-88
2023/12/29 04:45:47;;;;;;;1.85;1.52;;;;;;;;;;5088424;28;20547;-87
2023/12/29 04:48:12;;;;;;;1.77;1.48;;;;;;;;;;5079896;28;20023;-88
2023/12/29 04:50:38;;;;;;;1.48;1.38;;;;;;;;;;5065464;28;20059;-88
2023/12/29 04:53:03;;;;;;;4.70;1.58;;;;;;;;;;5094371;28;20079;-88
2023/12/29 04:55:29;;;;;;;1.52;1.30;;;;;;;;;;5079317;28;20024;-86
2023/12/29 04:57:54;;;;;;;2.17;1.80;;;;;;;;;;5060385;28;20544;-87
2023/12/29 05:00:19;;;;;;;0.77;0.75;;;;;;;;;;5076227;28;20028;-89
2023/12/29 05:02:45;;;;;;;1.52;1.20;;;;;;;;;;5069011;28;20104;-87
2023/12/29 05:05:10;;;;;;;4.43;1.83;;;;;;;;;;5089420;28;20016;-86
2023/12/29 05:07:36;;;;;;;1.58;1.23;;;;;;;;;;5086429;28;20024;-88
2023/12/29 05:10:01;;;;;;;1.52;1.30;;;;;;;;;;5085760;28;20031;-84
2023/12/29 05:12:26;;;;;;;1.65;1.52;;;;;;;;;;5069269;28;20028;-86
2023/12/29 05:15:05;;;;;;;4.47;1.55;;;;;;;;;;5081010;28;20027;-88
2023/12/29 05:17:31;;;;;;;2.05;1.70;;;;;;;;;;5065235;28;20032;-88
2023/12/29 05:19:56;;;;;;;6.25;1.92;;;;;;;;;;5088686;28;20035;-86
2023/12/29 05:22:21;;;;;;;2.60;1.92;;;;;;;;;;5086886;28;20115;-88
2023/12/29 05:24:46;;;;;;;1.50;1.40;;;;;;;;;;5082722;28;20055;-89
2023/12/29 05:27:12;;;;;;;3.58;1.67;;;;;;;;;;5085548;28;20039;-88
2023/12/29 05:29:37;;;;;;;2.38;1.23;;;;;;;;;;5086682;28;20036;-89
2023/12/29 05:32:04;;;;;;;2.15;1.60;;;;;;;;;;5093829;28;20058;-85
2023/12/29 05:34:29;;;;;;;3.15;1.40;;;;;;;;;;5101130;28;20013;-83
2023/12/29 05:36:55;;;;;;;1.33;1.20;;;;;;;;;;5107020;28;20110;-86
2023/12/29 05:39:20;;;;;;;1.95;1.30;;;;;;;;;;5085752;28;20035;-86
2023/12/29 05:41:45;;;;;;;3.67;1.75;;;;;;;;;;5071747;28;20035;-83
2023/12/29 05:44:11;;;;;;;2.42;1.70;;;;;;;;;;5083842;28;20041;-83
2023/12/29 05:46:36;;;;;;;1.42;1.30;;;;;;;;;;5086595;28;20032;-87
2023/12/29 05:49:01;;;;;;;2.63;1.50;;;;;;;;;;5059948;28;20032;-86
2023/12/29 05:51:27;;;;;;;1.38;1.27;;;;;;;;;;5085046;28;20021;-87
2023/12/29 05:53:52;;;;;;;1.17;1.15;;;;;;;;;;5085636;28;20035;-89
2023/12/29 05:56:18;;;;;;;2.45;1.50;;;;;;;;;;5060533;28;20120;-86
2023/12/29 05:58:43;;;;;;;1.65;1.20;;;;;;;;;;5079023;28;20020;-89
2023/12/29 06:01:09;;;;;;;1.20;1.15;;;;;;;;;;5077232;28;20028;-88
2023/12/29 06:03:34;;;;;;;2.58;1.55;;;;;;;;;;5078181;28;20020;-90
2023/12/29 06:06:00;;;;;;;3.65;1.92;;;;;;;;;;5079581;28;20029;-86
2023/12/29 06:08:25;;;;;;;1.38;1.27;;;;;;;;;;5063886;28;20031;-90
2023/12/29 06:10:50;;;;;;;2.47;1.55;;;;;;;;;;5068524;28;20795;-87
2023/12/29 06:13:16;;;;;;;1.33;1.23;;;;;;;;;;5082753;28;20123;-87
2023/12/29 06:15:41;;;;;;;3.38;1.70;;;;;;;;;;5074243;28;20024;-87
2023/12/29 06:18:07;;;;;;;2.03;1.35;;;;;;;;;;5076633;28;20135;-86
2023/12/29 06:20:32;;;;;;;1.70;1.52;;;;;;;;;;5061452;28;20032;-86
2023/12/29 06:22:57;;;;;;;1.40;1.30;;;;;;;;;;5074177;28;20113;-84
2023/12/29 06:25:23;;;;;;;1.98;1.83;;;;;;;;;;5080905;28;20020;-87
2023/12/29 06:27:48;;;;;;;1.63;1.52;;;;;;;;;;5075625;28;20028;-84
2023/12/29 06:30:14;;;;;;;2.03;1.83;;;;;;;;;;5061934;28;20069;-87
2023/12/29 06:32:40;;;;;;;0.85;0.68;;;;;;;;;;5093456;28;20016;-86
2023/12/29 06:35:06;;;;;;;2.72;1.80;;;;;;;;;;5063727;28;20030;-87
2023/12/29 06:37:32;;;;;;;1.52;1.20;;;;;;;;;;5082384;28;20452;-87
2023/12/29 06:39:58;;;;;;;1.73;1.30;;;;;;;;;;5079850;28;20498;-87
2023/12/29 06:42:23;;;;;;;1.40;1.27;;;;;;;;;;5076475;28;20502;-86
2023/12/29 06:44:48;;;;;;;3.63;1.55;;;;;;;;;;5083836;28;20034;-85
2023/12/29 06:47:14;;;;;;;6.40;1.38;;;;;;;;;;5076837;28;20029;-87
2023/12/29 06:49:39;;;;;;;1.73;1.63;;;;;;;;;;5076071;28;20024;-86
2023/12/29 06:52:05;;;;;;;1.63;1.48;;;;;;;;;;5083122;28;20020;-87
2023/12/29 06:54:31;;;;;;;1.05;0.98;;;;;;;;;;5073180;28;20024;-83
2023/12/29 06:56:56;;;;;;;1.52;1.40;;;;;;;;;;5077523;28;20057;-86
2023/12/29 06:59:22;;;;;;;1.40;1.30;;;;;;;;;;5079892;28;20020;-85
2023/12/29 07:01:47;;;;;;;1.15;1.05;;;;;;;;;;5080196;28;20485;-85
2023/12/29 07:04:13;;;;;;;1.30;1.05;;;;;;;;;;5064308;28;20374;-86
2023/12/29 07:06:39;;;;;;;2.55;1.17;;;;;;;;;;5096099;28;20596;-86
2023/12/29 07:09:05;;;;;;;1.60;1.45;;;;;;;;;;5093556;28;20032;-86
2023/12/29 07:11:30;;;;;;;1.45;1.33;;;;;;;;;;5082103;28;20035;-85
2023/12/29 07:13:55;;;;;;;1.40;1.30;;;;;;;;;;5074430;28;20513;-85
2023/12/29 07:16:21;;;;;;;1.50;1.40;;;;;;;;;;5096383;28;20114;-87
2023/12/29 07:18:46;;;;;;;1.40;1.30;;;;;;;;;;5080285;28;20470;-86
2023/12/29 07:21:12;;;;;;;2.58;1.30;;;;;;;;;;5085972;28;20023;-88
2023/12/29 07:23:38;;;;;;;1.60;1.30;;;;;;;;;;5085955;28;20020;-85
2023/12/29 07:26:04;;;;;;;1.00;1.00;;;;;;;;;;5086116;28;20027;-87
2023/12/29 07:28:31;;;;;;;5.13;1.27;;;;;;;;;;5062979;28;20387;-85
2023/12/29 07:30:56;;;;;;;1.25;1.13;;;;;;;;;;5086751;28;20032;-88
2023/12/29 07:33:23;;;;;;;0.68;0.68;;;;;;;;;;5087834;28;20017;-85
2023/12/29 07:35:49;;;;;;;0.82;0.82;;;;;;;;;;5089543;28;20073;-87
2023/12/29 07:38:14;;;;;;;4.00;1.25;;;;;;;;;;5069852;28;20020;-85
2023/12/29 07:40:40;;;;;;;0.82;0.82;;;;;;;;;;5076669;28;20020;-86
2023/12/29 07:43:05;;;;;;;1.60;1.38;;;;;;;;;;5071159;28;20059;-85
2023/12/29 07:45:31;;;;;;;0.70;0.70;;;;;;;;;;5066888;28;20031;-84
2023/12/29 07:47:57;;;;;;;1.30;0.98;;;;;;;;;;5089325;28;20024;-86
2023/12/29 07:50:22;;;;;;;1.50;1.23;;;;;;;;;;5080363;28;20024;-88
2023/12/29 07:52:48;;;;;;;1.00;1.00;;;;;;;;;;5065965;28;20406;-85
2023/12/29 07:55:16;;;;;;;1.10;1.05;;;;;;;;;;5085575;28;20636;-86
2023/12/29 07:57:41;;;;;;;0.98;0.90;;;;;;;;;;5082816;28;20016;-86
2023/12/29 08:00:07;;;;;;;1.17;1.00;;;;;;;;;;5091065;28;20058;-87
2023/12/29 08:02:33;;;;;;;0.90;0.90;;;;;;;;;;5070075;28;20064;-87
2023/12/29 08:04:58;;;;;;;1.45;1.20;;;;;;;;;;5067295;28;20027;-83
2023/12/29 08:07:24;;;;;;;0.73;0.70;;;;;;;;;;5079418;28;20020;-87
2023/12/29 08:09:49;;;;;;;0.93;0.93;;;;;;;;;;5059330;28;20032;-85
2023/12/29 08:12:14;;;;;;;0.82;0.82;;;;;;;;;;5076530;28;20028;-86
2023/12/29 08:14:40;;;;;;;0.90;0.90;;;;;;;;;;5076204;28;20031;-86
2023/12/29 08:17:07;;;;;;;1.52;0.93;;;;;;;;;;5079156;28;20393;-85
2023/12/29 08:19:32;;;;;;;0.88;0.80;;;;;;;;;;5081965;28;20033;-86
2023/12/29 08:21:57;;;;;;;1.10;1.00;;;;;;;;;;5083948;28;20372;-84
2023/12/29 08:24:23;;;;;;;1.13;1.02;;;;;;;;;;5077728;28;20505;-85
2023/12/29 08:26:48;;;;;;;1.10;1.02;;;;;;;;;;5069562;28;20020;-86
2023/12/29 08:29:14;;;;;;;1.30;1.05;;;;;;;;;;5078770;28;20093;-85
2023/12/29 08:31:41;;;;;;;0.75;0.75;;;;;;;;;;5059300;28;20016;-85
2023/12/29 08:34:07;;;;;;;1.60;1.23;;;;;;;;;;5080694;28;20125;-86
2023/12/29 08:36:33;;;;;;;1.00;1.00;;;;;;;;;;5092670;28;20111;-84
2023/12/29 08:38:58;;;;;;;1.13;1.10;;;;;;;;;;5065076;28;20024;-86
2023/12/29 08:41:24;;;;;;;1.00;1.00;;;;;;;;;;5066748;28;20534;-87
2023/12/29 08:43:49;;;;;;;1.88;1.27;;;;;;;;;;5082993;28;20035;-86
2023/12/29 08:46:14;;;;;;;2.25;1.45;;;;;;;;;;5084233;28;20024;-86
2023/12/29 08:48:40;;;;;;;0.80;0.80;;;;;;;;;;5070347;28;20035;-88
2023/12/29 08:51:06;;;;;;;1.42;1.23;;;;;;;;;;5068490;28;20031;-85
2023/12/29 08:53:35;;;;;;;1.10;1.00;;;;;;;;;;5090238;28;20290;-86
2023/12/29 08:56:00;;;;;;;3.50;1.13;;;;;;;;;;5087724;28;20028;-84
2023/12/29 08:58:26;;;;;;;1.08;1.00;;;;;;;;;;5087741;28;20038;-84
2023/12/29 09:00:52;;;;;;;1.10;1.00;;;;;;;;;;5063325;28;20066;-84
2023/12/29 09:03:18;;;;;;;2.08;1.33;;;;;;;;;;5083526;28;20470;-83
2023/12/29 09:05:43;;;;;;;2.08;1.10;;;;;;;;;;5080398;28;20059;-85
2023/12/29 09:08:09;;;;;;;1.23;1.17;;;;;;;;;;5078848;28;20017;-86
2023/12/29 09:10:34;;;;;;;1.33;1.23;;;;;;;;;;5065043;28;20394;-85
2023/12/29 09:13:00;;;;;;;1.65;1.15;;;;;;;;;;5068396;28;20027;-86
2023/12/29 09:15:25;;;;;;;0.82;0.82;;;;;;;;;;5086285;28;20405;-86
2023/12/29 09:17:50;;;;;;;0.93;0.88;;;;;;;;;;5090237;28;20059;-87
2023/12/29 09:20:16;;;;;;;0.90;0.90;;;;;;;;;;5083813;28;20028;-85
2023/12/29 09:22:41;;;;;;;1.45;1.35;;;;;;;;;;5066669;28;20028;-86
2023/12/29 09:25:07;;;;;;;2.85;1.60;;;;;;;;;;5087806;28;20030;-84
2023/12/29 09:27:32;;;;;;;1.20;1.10;;;;;;;;;;5061735;28;20028;-85
2023/12/29 09:29:58;;;;;;;1.45;1.08;;;;;;;;;;5061897;28;20031;-87
2023/12/29 09:32:23;;;;;;;1.00;1.00;;;;;;;;;;5076524;28;20025;-85
2023/12/29 09:34:49;;;;;;;0.90;0.90;;;;;;;;;;5086070;28;20035;-85
2023/12/29 09:37:14;;;;;;;1.25;1.15;;;;;;;;;;5064446;28;20031;-86
2023/12/29 09:39:39;;;;;;;1.05;1.00;;;;;;;;;;5085630;28;20016;-86
2023/12/29 09:42:06;;;;;;;1.42;1.00;;;;;;;;;;5080787;28;20116;-86
2023/12/29 09:44:34;;;;;;;0.88;0.88;;;;;;;;;;5079540;28;20116;-87
2023/12/29 09:47:04;;;;;;;1.42;0.98;;;;;;;;;;5066476;28;20070;-86
2023/12/29 09:49:38;;;;;;;0.85;0.82;;;;;;;;;;5085388;28;20024;-86
2023/12/29 09:52:04;;;;;;;1.38;0.85;;;;;;;;;;5080915;28;20036;-86
2023/12/29 09:54:32;;;;;;;1.50;1.10;;;;;;;;;;5102449;28;20045;-86
2023/12/29 09:56:57;;;;;;;0.80;0.75;;;;;;;;;;5107861;28;20074;-86
2023/12/29 09:59:25;;;;;;;1.17;1.08;;;;;;;;;;5088986;28;20016;-84
2023/12/29 10:01:52;;;;;;;1.00;1.00;;;;;;;;;;5109768;28;20029;-85
2023/12/29 10:04:17;;;;;;;0.80;0.80;;;;;;;;;;5088758;28;20036;-86
2023/12/29 10:06:46;;;;;;;0.73;0.73;;;;;;;;;;5102357;28;20020;-86
2023/12/29 10:09:12;;;;;;;1.00;1.00;;;;;;;;;;5095971;28;20013;-86
2023/12/29 10:11:42;;;;;;;1.30;0.88;;;;;;;;;;5082753;28;20040;-86
2023/12/29 10:14:26;;;;;;;0.70;0.70;;;;;;;;;;5101273;28;20028;-86
2023/12/29 10:17:06;;;;;;;0.90;0.90;;;;;;;;;;5087532;28;20036;-88
2023/12/29 10:19:40;;;;;;;0.80;0.80;;;;;;;;;;5087106;28;20056;-88
2023/12/29 10:22:28;;;;;;;0.63;0.63;;;;;;;;;;5087923;28;20024;-88
2023/12/29 10:24:54;;;;;;;0.70;0.70;;;;;;;;;;5087513;28;20079;-88
2023/12/29 10:27:19;;;;;;;0.77;0.68;;;;;;;;;;5087083;28;20058;-86
2023/12/29 10:29:45;;;;;;;0.77;0.77;;;;;;;;;;5091470;28;20114;-86
2023/12/29 10:32:10;;;;;;;0.60;0.60;;;;;;;;;;5071691;28;20048;-88
2023/12/29 10:34:35;;;;;;;0.70;0.70;;;;;;;;;;5088027;28;20035;-89
2023/12/29 10:37:04;;;;;;;0.98;0.88;;;;;;;;;;5094416;28;20036;-88
2023/12/29 10:39:29;;;;;;;1.10;1.08;;;;;;;;;;5092331;28;20023;-87
2023/12/29 10:42:08;;;;;;;0.95;0.70;;;;;;;;;;5085965;28;20024;-89
2023/12/29 10:44:35;;;;;;;0.80;0.80;;;;;;;;;;5089369;28;20055;-88
2023/12/29 10:47:13;;;;;;;0.90;0.90;;;;;;;;;;5085773;28;20153;-86
2023/12/29 10:49:41;;;;;;;0.90;0.90;;;;;;;;;;5064633;28;20497;-87
2023/12/29 10:52:14;;;;;;;0.80;0.80;;;;;;;;;;5085775;28;20441;-87
2023/12/29 10:54:39;;;;;;;0.85;0.85;;;;;;;;;;5073793;28;20123;-87
2023/12/29 10:57:04;;;;;;;1.40;0.98;;;;;;;;;;5093710;28;20060;-86
2023/12/29 10:59:30;;;;;;;0.98;0.98;;;;;;;;;;5069243;28;20047;-87
2023/12/29 11:01:56;;;;;;;0.80;0.80;;;;;;;;;;5091921;28;20055;-87
2023/12/29 11:04:24;;;;;;;0.80;0.77;;;;;;;;;;5089411;28;20103;-88
2023/12/29 11:06:51;;;;;;;1.08;0.50;;;;;;;;;;5089993;28;20055;-86
2023/12/29 11:09:35;;;;;;;1.52;0.90;;;;;;;;;;5076704;28;20563;-87
2023/12/29 11:12:03;;;;;;;0.95;0.65;;;;;;;;;;5072653;28;20032;-86
2023/12/29 11:14:28;;;;;;;0.60;0.60;;;;;;;;;;5080851;28;20575;-86
2023/12/29 11:17:00;;;;;;;0.60;0.60;;;;;;;;;;5075256;28;20486;-87
2023/12/29 11:19:29;;;;;;;0.73;0.73;;;;;;;;;;5092215;28;20028;-86
2023/12/29 11:21:55;;;;;;;0.73;0.65;;;;;;;;;;5086313;28;20074;-87
2023/12/29 11:24:22;;;;;;;0.82;0.55;;;;;;;;;;5077247;28;20043;-87
2023/12/29 11:26:49;;;;;;;0.40;0.40;;;;;;;;;;5087030;28;20059;-86
2023/12/29 11:29:16;;;;;;;0.57;0.57;;;;;;;;;;5080701;28;20053;-86
2023/12/29 11:31:43;;;;;;;0.60;0.60;;;;;;;;;;5071665;28;20022;-86
2023/12/29 11:34:20;;;;;;;0.73;0.73;;;;;;;;;;5071580;28;20029;-86
2023/12/29 11:36:46;;;;;;;0.70;0.70;;;;;;;;;;5069706;28;20024;-86
2023/12/29 11:39:27;;;;;;;1.65;0.80;;;;;;;;;;5085645;28;20031;-86
2023/12/29 11:42:27;;;;;;;0.43;0.43;;;;;;;;;;5084110;28;20024;-86
2023/12/29 11:44:52;;;;;;;0.70;0.70;;;;;;;;;;5086793;28;20102;-87
2023/12/29 11:47:38;;;;;;;0.80;0.80;;;;;;;;;;5088726;28;20036;-87
2023/12/29 11:50:04;;;;;;;0.50;0.50;;;;;;;;;;5079168;28;20012;-86
2023/12/29 11:52:34;;;;;;;0.47;0.47;;;;;;;;;;5084131;28;20448;-86
2023/12/29 11:55:14;;;;;;;0.50;0.50;;;;;;;;;;5084308;28;20025;-87
2023/12/29 11:57:40;;;;;;;0.60;0.60;;;;;;;;;;5079227;28;20020;-86
2023/12/29 12:00:06;;;;;;;0.52;0.52;;;;;;;;;;5091853;28;20024;-87
2023/12/29 12:02:32;;;;;;;2.83;0.50;;;;;;;;;;5081195;28;20080;-86
2023/12/29 12:04:58;;;;;;;0.50;0.50;;;;;;;;;;5088684;28;20054;-87
2023/12/29 12:07:27;;;;;;;0.45;0.45;;;;;;;;;;5090833;28;20109;-87
2023/12/29 12:10:29;;;;;;;0.50;0.50;;;;;;;;;;5068740;28;20042;-87
2023/12/29 12:12:56;;;;;;;;;;;;;;;;;;5094543;28;20036;-88
2023/12/29 12:15:30;;;;;;;0.60;0.60;;;;;;;;;;5091209;28;19934;-87
2023/12/29 12:18:04;;;;;;;0.60;0.60;;;;;;;;;;5082492;28;20019;-86
2023/12/29 12:20:29;;;;;;;0.70;0.60;;;;;;;;;;5082790;28;20094;-87
2023/12/29 12:23:24;;;;;;;0.70;0.70;;;;;;;;;;5090344;28;20024;-87
2023/12/29 12:25:50;;;;;;;0.75;0.70;;;;;;;;;;5087633;28;20105;-87
2023/12/29 12:28:16;;;;;;;0.70;0.70;;;;;;;;;;5084973;28;20394;-86
2023/12/29 12:30:41;;;;;;;0.50;0.50;;;;;;;;;;5099083;28;20489;-87
2023/12/29 12:33:11;;;;;;;0.40;0.40;;;;;;;;;;5097491;28;20024;-87
2023/12/29 12:35:36;;;;;;;0.82;0.57;;;;;;;;;;5067383;28;20044;-88
2023/12/29 12:38:22;;;;;;;2.10;0.95;;;;;;;;;;5084760;28;20032;-87
2023/12/29 12:40:47;;;;;;;0.70;0.70;;;;;;;;;;5076679;28;20025;-87
2023/12/29 12:43:16;;;;;;;0.63;0.52;;;;;;;;;;5095241;28;20028;-86
2023/12/29 12:45:47;;;;;;;0.22;0.22;;;;;;;;;;5083106;28;20020;-86
2023/12/29 12:48:20;;;;;;;0.45;0.45;;;;;;;;;;5083202;28;20033;-86
2023/12/29 12:50:47;;;;;;;3.40;0.63;;;;;;;;;;5079978;28;20025;-86
2023/12/29 12:53:19;;;;;;;0.70;0.70;;;;;;;;;;5068560;28;20123;-87
2023/12/29 12:55:47;;;;;;;0.95;0.70;;;;;;;;;;5090054;28;20073;-86
2023/12/29 12:58:14;;;;;;;0.57;0.45;;;;;;;;;;5087859;28;20028;-87
2023/12/29 13:00:40;;;;;;;0.50;0.50;;;;;;;;;;5080454;28;20367;-87
2023/12/29 13:03:06;;;;;;;0.60;0.60;;;;;;;;;;5065153;28;20031;-87
2023/12/29 13:05:31;;;;;;;0.80;0.73;;;;;;;;;;5094396;28;20024;-85
2023/12/29 13:07:57;;;;;;;3.55;0.70;;;;;;;;;;5088896;28;20040;-87
2023/12/29 13:10:22;;;;;;;0.70;0.70;;;;;;;;;;5090092;28;20020;-87
2023/12/29 13:12:54;;;;;;;0.95;0.90;;;;;;;;;;5094790;28;20416;-87
2023/12/29 13:15:20;;;;;;;1.77;0.75;;;;;;;;;;5091715;28;20028;-87
2023/12/29 13:17:55;;;;;;;0.88;0.82;;;;;;;;;;5069936;28;20032;-88
2023/12/29 13:20:21;;;;;;;0.73;0.73;;;;;;;;;;5083279;28;20032;-88
2023/12/29 13:22:50;;;;;;;0.70;0.70;;;;;;;;;;5082089;28;20024;-87
2023/12/29 13:25:25;;;;;;;0.98;0.88;;;;;;;;;;5087415;28;20033;-87
2023/12/29 13:27:52;;;;;;;0.63;0.63;;;;;;;;;;5093254;28;20038;-87
2023/12/29 13:30:19;;;;;;;1.15;1.05;;;;;;;;;;5089575;28;20043;-86
2023/12/29 13:32:46;;;;;;;1.25;0.80;;;;;;;;;;5085188;28;20478;-88
2023/12/29 13:35:20;;;;;;;1.20;1.10;;;;;;;;;;5091215;28;20145;-86
2023/12/29 13:38:05;;;;;;;0.70;0.70;;;;;;;;;;5094731;28;20059;-87
2023/12/29 13:41:00;;;;;;;1.30;1.00;;;;;;;;;;5090891;28;20023;-86
2023/12/29 13:43:28;;;;;;;1.45;0.70;;;;;;;;;;5067232;28;20028;-88
2023/12/29 13:45:53;;;;;;;1.10;1.00;;;;;;;;;;5075499;28;20028;-87
2023/12/29 13:48:19;;;;;;;0.88;0.82;;;;;;;;;;5064223;28;20025;-87
2023/12/29 13:50:48;;;;;;;0.60;0.60;;;;;;;;;;5082450;28;20074;-88
2023/12/29 13:53:20;;;;;;;0.73;0.73;;;;;;;;;;5057821;28;20496;-87
2023/12/29 13:55:46;;;;;;;0.50;0.50;;;;;;;;;;5059250;28;20032;-86
2023/12/29 13:58:12;;;;;;;0.80;0.80;;;;;;;;;;5059292;28;20423;-87
2023/12/29 14:00:40;;;;;;;0.57;0.57;;;;;;;;;;5086224;28;20544;-87
2023/12/29 14:03:09;;;;;;;1.17;1.08;;;;;;;;;;5064226;28;20020;-87
2023/12/29 14:05:59;;;;;;;0.75;0.65;;;;;;;;;;5068300;28;20102;-87
2023/12/29 14:08:44;;;;;;;3.63;1.25;;;;;;;;;;5059027;28;20037;-87
2023/12/29 14:11:10;;;;;;;0.90;0.80;;;;;;;;;;5083314;28;20028;-88
2023/12/29 14:13:41;;;;;;;1.27;0.98;;;;;;;;;;5083846;28;20039;-87
2023/12/29 14:16:06;;;;;;;1.45;0.63;;;;;;;;;;5066640;28;20024;-87
2023/12/29 14:18:46;;;;;;;0.98;0.90;;;;;;;;;;5073047;28;20028;-88
2023/12/29 14:21:24;;;;;;;0.98;0.93;;;;;;;;;;5077540;28;20032;-87
2023/12/29 14:24:13;;;;;;;1.55;0.70;;;;;;;;;;5061957;28;20028;-86
2023/12/29 14:26:53;;;;;;;0.70;0.70;;;;;;;;;;5068820;28;20107;-86
2023/12/29 14:29:19;;;;;;;0.68;0.68;;;;;;;;;;5068410;28;20040;-86
2023/12/29 14:31:46;;;;;;;1.48;0.75;;;;;;;;;;5082622;28;20029;-87
2023/12/29 14:34:12;;;;;;;0.60;0.60;;;;;;;;;;5086895;28;20051;-87
2023/12/29 14:36:40;;;;;;;1.48;1.38;;;;;;;;;;5079918;28;20032;-88
2023/12/29 14:39:06;;;;;;;0.70;0.70;;;;;;;;;;5072471;28;20088;-87
2023/12/29 14:41:32;;;;;;;0.77;0.77;;;;;;;;;;5081754;28;20047;-87
2023/12/29 14:43:57;;;;;;;0.80;0.80;;;;;;;;;;5095743;28;20036;-87